MDT,Max TemperatureF,Mean TemperatureF,Min TemperatureF,Max Dew PointF,MeanDew PointF,Min DewpointF,Max Humidity, Mean Humidity, Min Humidity, Max Sea Level PressureIn, Mean Sea Level PressureIn, Min Sea Level PressureIn, Max VisibilityMiles, Mean VisibilityMiles, Min VisibilityMiles, Max Wind SpeedMPH, Mean Wind SpeedMPH, Max Gust SpeedMPH,PrecipitationIn, CloudCover, Events, WindDirDegrees
2013-10-1,50,38,26,36,27,17,100,68,36,30.04,29.95,29.89,,,,15,3,21,0.00,,,343
2013-10-2,48,34,20,29,24,17,96,64,31,30.05,29.94,29.78,,,,10,2,14,0.00,,,360
2013-10-3,40,35,30,31,25,19,92,70,48,30.18,29.91,29.73,,,,16,7,28,0.03,,,338
2013-10-4,49,35,20,22,19,16,88,60,31,30.45,30.33,30.20,,,,12,4,17,0.00,,,333
2013-10-5,60,38,15,25,19,12,92,55,17,30.55,30.44,30.32,,,,8,2,12,0.00,,,189
2013-10-6,70,45,19,31,23,13,100,56,11,30.44,30.27,30.11,,,,10,2,13,0.00,,,22
2013-10-7,61,42,22,28,21,14,92,54,16,30.10,29.94,29.83,,,,15,2,23,0.00,,,243
2013-10-8,46,34,21,30,23,19,92,65,37,29.88,29.82,29.77,,,,12,4,20,0.00,,,337
2013-10-9,57,42,26,30,27,25,92,62,32,29.90,29.80,29.69,,,,14,3,17,0.00,,,80
2013-10-10,54,39,23,31,24,19,100,66,31,29.86,29.75,29.66,,,,15,2,22,0.00,,,349
2013-10-11,52,34,16,24,19,14,92,59,26,30.07,29.97,29.86,,,,9,1,13,0.00,,,300
2013-10-12,51,38,24,29,24,21,92,63,33,30.00,29.93,29.85,,,,12,2,17,0.00,,,336
2013-10-13,45,34,23,30,27,23,92,71,49,30.11,30.00,29.92,,,,9,2,14,0.00,,,333
2013-10-14,48,33,17,28,20,16,96,63,29,30.26,30.19,30.12,,,,12,3,16,0.00,,,327
2013-10-15,52,34,15,24,16,10,92,56,20,30.37,30.28,30.18,,,,8,3,12,0.00,,,172
2013-10-16,52,33,13,22,17,12,92,57,21,30.25,30.16,30.06,,,,14,2,21,0.00,,,330
2013-10-17,52,33,14,24,18,13,92,59,26,30.24,30.14,30.06,,,,14,2,21,0.00,,,329
2013-10-18,57,36,14,23,18,13,92,56,20,30.36,30.24,30.12,,,,8,2,14,0.00,,,205
2013-10-19,61,39,16,23,18,14,92,55,17,30.30,30.17,30.05,,,,10,1,16,0.00,,,331
2013-10-20,58,38,18,25,20,17,91,56,21,30.17,30.09,30.01,,,,12,2,17,0.00,,,13
2013-10-21,62,40,17,26,22,15,92,56,20,30.30,30.20,30.11,,,,8,2,10,0.00,,,165
2013-10-22,65,42,18,28,23,17,92,56,20,30.36,30.22,30.08,,,,7,2,10,0.00,,,210
2013-10-23,65,42,18,28,22,17,100,59,18,30.30,30.17,30.05,,,,7,2,10,0.00,,,168
2013-10-24,64,40,16,27,21,16,92,55,17,30.30,30.18,30.04,,,,7,2,12,0.00,,,165
2013-10-25,63,40,17,25,19,16,91,54,16,30.36,30.26,30.16,,,,7,2,9,0.00,,,188
2013-10-26,62,39,16,25,20,14,92,57,22,30.44,30.32,30.18,,,,9,2,12,0.00,,,353
2013-10-27,57,36,14,26,19,12,92,55,18,29.93,29.68,29.60,,,,18,4,26,0.00,,,147
2013-10-28,40,33,25,34,30,24,100,85,70,29.69,29.55,29.46,,,,9,3,13,0.34,,,294
2013-10-29,41,31,20,32,26,19,100,82,64,29.95,29.85,29.72,,,,6,1,7,0.00,,,178
2013-10-30,40,30,20,29,25,20,100,77,54,30.06,29.96,29.89,,,,12,1,14,0.00,,,307
2013-10-31,41,31,21,33,27,20,96,85,73,30.15,30.10,30.03,,,,12,2,17,0.00,,,334